sensor_id;sensor_type;location;lat;lon;timestamp;temperature;humidity
16263;DHT22;8239;48.594;8.598;2023-09-12T00:00:17;15.80;99.90
16263;DHT22;8239;48.594;8.598;2023-09-12T00:02:45;15.70;99.90
16263;DHT22;8239;48.594;8.598;2023-09-12T00:05:12;15.70;99.90
16263;DHT22;8239;48.594;8.598;2023-09-12T00:07:40;15.70;99.90
16263;DHT22;8239;48.594;8.598;2023-09-12T00:10:08;15.60;99.90
16263;DHT22;8239;48.594;8.598;2023-09-12T00:12:35;15.60;99.90
16263;DHT22;8239;48.594;8.598;2023-09-12T00:15:02;15.60;99.90
16263;DHT22;8239;48.594;8.598;2023-09-12T00:17:30;15.60;99.90
16263;DHT22;8239;48.594;8.598;2023-09-12T00:19:56;15.60;99.90
16263;DHT22;8239;48.594;8.598;2023-09-12T00:22:23;15.50;99.90
16263;DHT22;8239;48.594;8.598;2023-09-12T00:24:52;15.50;99.90
16263;DHT22;8239;48.594;8.598;2023-09-12T00:27:19;15.50;99.90
16263;DHT22;8239;48.594;8.598;2023-09-12T00:29:46;15.50;99.90
16263;DHT22;8239;48.594;8.598;2023-09-12T00:32:13;15.50;99.90
16263;DHT22;8239;48.594;8.598;2023-09-12T00:34:41;15.40;99.90
16263;DHT22;8239;48.594;8.598;2023-09-12T00:37:08;15.40;99.90
16263;DHT22;8239;48.594;8.598;2023-09-12T00:39:38;15.40;99.90
16263;DHT22;8239;48.594;8.598;2023-09-12T00:42:06;15.30;99.90
16263;DHT22;8239;48.594;8.598;2023-09-12T00:44:33;15.30;99.90
16263;DHT22;8239;48.594;8.598;2023-09-12T00:47:01;15.30;99.90
16263;DHT22;8239;48.594;8.598;2023-09-12T00:49:29;15.20;99.90
16263;DHT22;8239;48.594;8.598;2023-09-12T00:51:58;15.20;99.90
16263;DHT22;8239;48.594;8.598;2023-09-12T00:54:26;15.20;99.90
16263;DHT22;8239;48.594;8.598;2023-09-12T00:56:53;15.10;99.90
16263;DHT22;8239;48.594;8.598;2023-09-12T00:59:22;15.00;99.90
16263;DHT22;8239;48.594;8.598;2023-09-12T01:01:50;15.00;99.90
16263;DHT22;8239;48.594;8.598;2023-09-12T01:04:17;15.00;99.90
16263;DHT22;8239;48.594;8.598;2023-09-12T01:06:45;15.00;99.90
16263;DHT22;8239;48.594;8.598;2023-09-12T01:09:14;15.00;99.90
16263;DHT22;8239;48.594;8.598;2023-09-12T01:11:41;14.90;99.90
16263;DHT22;8239;48.594;8.598;2023-09-12T01:14:11;14.90;99.90
16263;DHT22;8239;48.594;8.598;2023-09-12T01:16:39;14.90;99.90
16263;DHT22;8239;48.594;8.598;2023-09-12T01:19:07;14.90;99.90
16263;DHT22;8239;48.594;8.598;2023-09-12T01:21:47;14.90;99.90
16263;DHT22;8239;48.594;8.598;2023-09-12T01:24:54;14.90;99.90
16263;DHT22;8239;48.594;8.598;2023-09-12T01:27:34;14.80;99.90
16263;DHT22;8239;48.594;8.598;2023-09-12T01:30:03;14.80;99.90
16263;DHT22;8239;48.594;8.598;2023-09-12T01:32:32;14.80;99.90
16263;DHT22;8239;48.594;8.598;2023-09-12T01:34:59;14.80;99.90
16263;DHT22;8239;48.594;8.598;2023-09-12T01:37:26;14.70;99.90
16263;DHT22;8239;48.594;8.598;2023-09-12T01:39:53;14.70;99.90
16263;DHT22;8239;48.594;8.598;2023-09-12T01:42:21;14.70;99.90
16263;DHT22;8239;48.594;8.598;2023-09-12T01:44:55;14.60;99.90
16263;DHT22;8239;48.594;8.598;2023-09-12T01:47:23;14.60;99.90
16263;DHT22;8239;48.594;8.598;2023-09-12T01:49:52;14.60;99.90
16263;DHT22;8239;48.594;8.598;2023-09-12T01:52:21;14.60;99.90
16263;DHT22;8239;48.594;8.598;2023-09-12T01:54:50;14.60;99.90
16263;DHT22;8239;48.594;8.598;2023-09-12T01:57:18;14.50;99.90
16263;DHT22;8239;48.594;8.598;2023-09-12T01:59:46;14.50;99.90
16263;DHT22;8239;48.594;8.598;2023-09-12T02:02:15;14.50;99.90
16263;DHT22;8239;48.594;8.598;2023-09-12T02:04:50;14.40;99.90
16263;DHT22;8239;48.594;8.598;2023-09-12T02:07:17;14.40;99.90
16263;DHT22;8239;48.594;8.598;2023-09-12T02:09:44;14.40;99.90
16263;DHT22;8239;48.594;8.598;2023-09-12T02:12:11;14.40;99.90
16263;DHT22;8239;48.594;8.598;2023-09-12T02:14:38;14.40;99.90
16263;DHT22;8239;48.594;8.598;2023-09-12T02:17:05;14.40;99.90
16263;DHT22;8239;48.594;8.598;2023-09-12T02:19:34;14.40;99.90
16263;DHT22;8239;48.594;8.598;2023-09-12T02:22:01;14.40;99.90
16263;DHT22;8239;48.594;8.598;2023-09-12T02:24:28;14.40;99.90
16263;DHT22;8239;48.594;8.598;2023-09-12T02:26:55;14.30;99.90
16263;DHT22;8239;48.594;8.598;2023-09-12T02:29:22;14.30;99.90
16263;DHT22;8239;48.594;8.598;2023-09-12T02:31:48;14.30;99.90
16263;DHT22;8239;48.594;8.598;2023-09-12T02:34:15;14.30;99.90
16263;DHT22;8239;48.594;8.598;2023-09-12T02:36:43;14.30;99.90
16263;DHT22;8239;48.594;8.598;2023-09-12T02:39:10;14.30;99.90
16263;DHT22;8239;48.594;8.598;2023-09-12T02:41:37;14.20;99.90
16263;DHT22;8239;48.594;8.598;2023-09-12T02:44:04;14.20;99.90
16263;DHT22;8239;48.594;8.598;2023-09-12T02:46:31;14.20;99.90
16263;DHT22;8239;48.594;8.598;2023-09-12T02:48:58;14.20;99.90
16263;DHT22;8239;48.594;8.598;2023-09-12T02:51:25;14.20;99.90
16263;DHT22;8239;48.594;8.598;2023-09-12T02:53:54;14.20;99.90
16263;DHT22;8239;48.594;8.598;2023-09-12T02:56:21;14.20;99.90
16263;DHT22;8239;48.594;8.598;2023-09-12T02:58:48;14.20;99.90
16263;DHT22;8239;48.594;8.598;2023-09-12T03:01:15;14.20;99.90
16263;DHT22;8239;48.594;8.598;2023-09-12T03:03:42;14.20;99.90
16263;DHT22;8239;48.594;8.598;2023-09-12T03:06:12;14.20;99.90
16263;DHT22;8239;48.594;8.598;2023-09-12T03:08:39;14.30;99.90
16263;DHT22;8239;48.594;8.598;2023-09-12T03:11:08;14.30;99.90
16263;DHT22;8239;48.594;8.598;2023-09-12T03:13:35;14.30;99.90
16263;DHT22;8239;48.594;8.598;2023-09-12T03:16:02;14.30;99.90
16263;DHT22;8239;48.594;8.598;2023-09-12T03:18:30;14.30;99.90
16263;DHT22;8239;48.594;8.598;2023-09-12T03:20:56;14.40;99.90
16263;DHT22;8239;48.594;8.598;2023-09-12T03:23:23;14.40;99.90
16263;DHT22;8239;48.594;8.598;2023-09-12T03:25:50;14.40;99.90
16263;DHT22;8239;48.594;8.598;2023-09-12T03:28:18;14.40;99.90
16263;DHT22;8239;48.594;8.598;2023-09-12T03:30:46;14.40;99.90
16263;DHT22;8239;48.594;8.598;2023-09-12T03:33:13;14.40;99.90
16263;DHT22;8239;48.594;8.598;2023-09-12T03:35:43;14.50;99.90
16263;DHT22;8239;48.594;8.598;2023-09-12T03:38:10;14.50;99.90
16263;DHT22;8239;48.594;8.598;2023-09-12T03:40:37;14.60;99.90
16263;DHT22;8239;48.594;8.598;2023-09-12T03:43:04;14.50;99.90
16263;DHT22;8239;48.594;8.598;2023-09-12T03:45:32;14.60;99.90
16263;DHT22;8239;48.594;8.598;2023-09-12T03:47:59;14.60;99.90
16263;DHT22;8239;48.594;8.598;2023-09-12T03:50:26;14.60;99.90
16263;DHT22;8239;48.594;8.598;2023-09-12T03:52:53;14.60;99.90
16263;DHT22;8239;48.594;8.598;2023-09-12T03:55:20;14.70;99.90
16263;DHT22;8239;48.594;8.598;2023-09-12T03:57:47;14.70;99.90
16263;DHT22;8239;48.594;8.598;2023-09-12T04:00:15;14.70;99.90
16263;DHT22;8239;48.594;8.598;2023-09-12T04:02:43;14.70;99.90
16263;DHT22;8239;48.594;8.598;2023-09-12T04:05:10;14.80;99.90
16263;DHT22;8239;48.594;8.598;2023-09-12T04:07:37;14.70;99.90
16263;DHT22;8239;48.594;8.598;2023-09-12T04:10:04;14.70;99.90
16263;DHT22;8239;48.594;8.598;2023-09-12T04:12:31;14.70;99.90
16263;DHT22;8239;48.594;8.598;2023-09-12T04:14:58;14.70;99.90
16263;DHT22;8239;48.594;8.598;2023-09-12T04:17:25;14.70;99.90
16263;DHT22;8239;48.594;8.598;2023-09-12T04:19:53;14.60;99.90
16263;DHT22;8239;48.594;8.598;2023-09-12T04:22:20;14.60;99.90
16263;DHT22;8239;48.594;8.598;2023-09-12T04:24:47;14.60;99.90
16263;DHT22;8239;48.594;8.598;2023-09-12T04:27:14;14.50;99.90
16263;DHT22;8239;48.594;8.598;2023-09-12T04:29:41;14.50;99.90
16263;DHT22;8239;48.594;8.598;2023-09-12T04:32:08;14.50;99.90
16263;DHT22;8239;48.594;8.598;2023-09-12T04:34:34;14.50;99.90
16263;DHT22;8239;48.594;8.598;2023-09-12T04:37:08;14.50;99.90
16263;DHT22;8239;48.594;8.598;2023-09-12T04:39:35;14.50;99.90
16263;DHT22;8239;48.594;8.598;2023-09-12T04:42:02;14.50;99.90
16263;DHT22;8239;48.594;8.598;2023-09-12T04:44:34;14.40;99.90
16263;DHT22;8239;48.594;8.598;2023-09-12T04:47:02;14.40;99.90
16263;DHT22;8239;48.594;8.598;2023-09-12T04:49:29;14.30;99.90
16263;DHT22;8239;48.594;8.598;2023-09-12T04:51:56;14.30;99.90
16263;DHT22;8239;48.594;8.598;2023-09-12T04:54:24;14.30;99.90
16263;DHT22;8239;48.594;8.598;2023-09-12T04:56:51;14.30;99.90
16263;DHT22;8239;48.594;8.598;2023-09-12T04:59:18;14.30;99.90
16263;DHT22;8239;48.594;8.598;2023-09-12T05:01:45;14.30;99.90
16263;DHT22;8239;48.594;8.598;2023-09-12T05:04:12;14.30;99.90
16263;DHT22;8239;48.594;8.598;2023-09-12T05:06:40;14.30;99.90
16263;DHT22;8239;48.594;8.598;2023-09-12T05:09:07;14.30;99.90
16263;DHT22;8239;48.594;8.598;2023-09-12T05:11:37;14.30;99.90
16263;DHT22;8239;48.594;8.598;2023-09-12T05:14:05;14.40;99.90
16263;DHT22;8239;48.594;8.598;2023-09-12T05:16:31;14.50;99.90
16263;DHT22;8239;48.594;8.598;2023-09-12T05:18:58;14.60;99.90
16263;DHT22;8239;48.594;8.598;2023-09-12T05:21:25;14.70;99.90
16263;DHT22;8239;48.594;8.598;2023-09-12T05:23:53;14.80;99.90
16263;DHT22;8239;48.594;8.598;2023-09-12T05:26:20;14.80;99.90
16263;DHT22;8239;48.594;8.598;2023-09-12T05:28:48;14.90;99.90
16263;DHT22;8239;48.594;8.598;2023-09-12T05:31:15;14.90;99.90
16263;DHT22;8239;48.594;8.598;2023-09-12T05:33:42;15.00;99.90
16263;DHT22;8239;48.594;8.598;2023-09-12T05:36:12;15.10;99.90
16263;DHT22;8239;48.594;8.598;2023-09-12T05:38:39;15.20;99.90
16263;DHT22;8239;48.594;8.598;2023-09-12T05:41:06;15.30;99.90
16263;DHT22;8239;48.594;8.598;2023-09-12T05:43:33;15.40;99.90
16263;DHT22;8239;48.594;8.598;2023-09-12T05:46:02;15.50;99.90
16263;DHT22;8239;48.594;8.598;2023-09-12T05:48:29;15.60;99.90
16263;DHT22;8239;48.594;8.598;2023-09-12T05:50:56;15.70;99.90
16263;DHT22;8239;48.594;8.598;2023-09-12T05:53:23;15.80;99.90
16263;DHT22;8239;48.594;8.598;2023-09-12T05:55:50;15.80;99.90
16263;DHT22;8239;48.594;8.598;2023-09-12T05:58:17;16.00;99.90
16263;DHT22;8239;48.594;8.598;2023-09-12T06:00:44;16.10;99.90
16263;DHT22;8239;48.594;8.598;2023-09-12T06:03:15;16.10;99.90
16263;DHT22;8239;48.594;8.598;2023-09-12T06:05:42;16.20;99.90
16263;DHT22;8239;48.594;8.598;2023-09-12T06:08:10;16.40;99.90
16263;DHT22;8239;48.594;8.598;2023-09-12T06:10:37;16.50;99.90
16263;DHT22;8239;48.594;8.598;2023-09-12T06:13:03;16.60;99.90
16263;DHT22;8239;48.594;8.598;2023-09-12T06:15:30;16.70;99.90
16263;DHT22;8239;48.594;8.598;2023-09-12T06:17:57;16.80;99.90
16263;DHT22;8239;48.594;8.598;2023-09-12T06:20:26;16.80;99.90
16263;DHT22;8239;48.594;8.598;2023-09-12T06:22:53;16.90;99.90
16263;DHT22;8239;48.594;8.598;2023-09-12T06:25:20;17.10;99.90
16263;DHT22;8239;48.594;8.598;2023-09-12T06:27:46;17.30;99.90
16263;DHT22;8239;48.594;8.598;2023-09-12T06:30:15;17.80;99.90
16263;DHT22;8239;48.594;8.598;2023-09-12T06:32:42;18.50;99.90
16263;DHT22;8239;48.594;8.598;2023-09-12T06:35:09;19.10;99.90
16263;DHT22;8239;48.594;8.598;2023-09-12T06:37:38;19.70;99.90
16263;DHT22;8239;48.594;8.598;2023-09-12T06:40:07;20.20;99.90
16263;DHT22;8239;48.594;8.598;2023-09-12T06:42:34;20.80;99.90
16263;DHT22;8239;48.594;8.598;2023-09-12T06:45:01;21.60;99.90
16263;DHT22;8239;48.594;8.598;2023-09-12T06:47:28;22.10;99.90
16263;DHT22;8239;48.594;8.598;2023-09-12T06:49:55;22.30;98.50
16263;DHT22;8239;48.594;8.598;2023-09-12T06:52:22;22.40;97.20
16263;DHT22;8239;48.594;8.598;2023-09-12T06:54:50;22.50;97.40
16263;DHT22;8239;48.594;8.598;2023-09-12T06:57:17;22.80;97.60
16263;DHT22;8239;48.594;8.598;2023-09-12T06:59:44;23.50;97.60
16263;DHT22;8239;48.594;8.598;2023-09-12T07:02:11;24.60;95.80
16263;DHT22;8239;48.594;8.598;2023-09-12T07:04:38;25.70;92.70
16263;DHT22;8239;48.594;8.598;2023-09-12T07:07:05;26.80;89.40
16263;DHT22;8239;48.594;8.598;2023-09-12T07:09:32;27.70;81.50
16263;DHT22;8239;48.594;8.598;2023-09-12T07:12:00;28.50;75.70
16263;DHT22;8239;48.594;8.598;2023-09-12T07:14:27;29.30;70.30
16263;DHT22;8239;48.594;8.598;2023-09-12T07:16:55;29.90;65.30
16263;DHT22;8239;48.594;8.598;2023-09-12T07:19:22;30.50;63.10
16263;DHT22;8239;48.594;8.598;2023-09-12T07:21:49;31.10;61.10
16263;DHT22;8239;48.594;8.598;2023-09-12T07:24:18;31.60;59.50
16263;DHT22;8239;48.594;8.598;2023-09-12T07:26:45;31.90;56.70
16263;DHT22;8239;48.594;8.598;2023-09-12T07:29:14;32.20;55.30
16263;DHT22;8239;48.594;8.598;2023-09-12T07:31:40;32.60;54.90
16263;DHT22;8239;48.594;8.598;2023-09-12T07:34:07;33.10;54.20
16263;DHT22;8239;48.594;8.598;2023-09-12T07:36:35;33.70;53.20
16263;DHT22;8239;48.594;8.598;2023-09-12T07:39:02;34.40;51.60
16263;DHT22;8239;48.594;8.598;2023-09-12T07:41:29;34.90;49.90
16263;DHT22;8239;48.594;8.598;2023-09-12T07:43:58;35.30;48.40
16263;DHT22;8239;48.594;8.598;2023-09-12T07:46:31;35.70;47.10
16263;DHT22;8239;48.594;8.598;2023-09-12T07:48:58;36.00;46.10
16263;DHT22;8239;48.594;8.598;2023-09-12T07:51:25;36.20;45.90
16263;DHT22;8239;48.594;8.598;2023-09-12T07:53:52;36.10;44.90
16263;DHT22;8239;48.594;8.598;2023-09-12T07:56:25;36.30;45.10
16263;DHT22;8239;48.594;8.598;2023-09-12T07:58:56;36.50;44.80
16263;DHT22;8239;48.594;8.598;2023-09-12T08:01:25;36.80;44.50
16263;DHT22;8239;48.594;8.598;2023-09-12T08:03:54;37.20;43.90
16263;DHT22;8239;48.594;8.598;2023-09-12T08:06:21;37.90;42.80
16263;DHT22;8239;48.594;8.598;2023-09-12T08:08:49;38.40;41.80
16263;DHT22;8239;48.594;8.598;2023-09-12T08:11:16;39.00;41.40
16263;DHT22;8239;48.594;8.598;2023-09-12T08:13:45;39.60;41.00
16263;DHT22;8239;48.594;8.598;2023-09-12T08:16:12;40.10;39.60
16263;DHT22;8239;48.594;8.598;2023-09-12T08:18:39;40.70;39.30
16263;DHT22;8239;48.594;8.598;2023-09-12T08:21:08;41.10;38.20
16263;DHT22;8239;48.594;8.598;2023-09-12T08:23:35;41.40;38.00
16263;DHT22;8239;48.594;8.598;2023-09-12T08:26:02;42.00;37.20
16263;DHT22;8239;48.594;8.598;2023-09-12T08:28:29;42.40;36.30
16263;DHT22;8239;48.594;8.598;2023-09-12T08:30:56;42.80;35.60
16263;DHT22;8239;48.594;8.598;2023-09-12T08:33:23;43.10;35.60
16263;DHT22;8239;48.594;8.598;2023-09-12T08:35:50;43.40;35.20
16263;DHT22;8239;48.594;8.598;2023-09-12T08:38:18;43.70;35.00
16263;DHT22;8239;48.594;8.598;2023-09-12T08:40:48;43.60;34.50
16263;DHT22;8239;48.594;8.598;2023-09-12T08:43:15;43.60;33.90
16263;DHT22;8239;48.594;8.598;2023-09-12T08:45:43;43.10;34.30
16263;DHT22;8239;48.594;8.598;2023-09-12T08:48:11;43.20;34.40
16263;DHT22;8239;48.594;8.598;2023-09-12T08:50:38;43.10;34.30
16263;DHT22;8239;48.594;8.598;2023-09-12T08:53:05;42.70;34.00
16263;DHT22;8239;48.594;8.598;2023-09-12T08:55:33;42.60;34.50
16263;DHT22;8239;48.594;8.598;2023-09-12T08:58:03;42.30;34.20
16263;DHT22;8239;48.594;8.598;2023-09-12T09:00:34;42.40;34.30
16263;DHT22;8239;48.594;8.598;2023-09-12T09:03:01;42.40;34.30
16263;DHT22;8239;48.594;8.598;2023-09-12T09:05:29;42.70;34.10
16263;DHT22;8239;48.594;8.598;2023-09-12T09:07:57;43.00;33.30
16263;DHT22;8239;48.594;8.598;2023-09-12T09:10:25;43.80;33.00
16263;DHT22;8239;48.594;8.598;2023-09-12T09:12:54;44.50;31.90
16263;DHT22;8239;48.594;8.598;2023-09-12T09:15:25;44.50;30.10
16263;DHT22;8239;48.594;8.598;2023-09-12T09:17:53;44.60;29.80
16263;DHT22;8239;48.594;8.598;2023-09-12T09:20:26;44.80;30.60
16263;DHT22;8239;48.594;8.598;2023-09-12T09:23:01;44.80;30.30
16263;DHT22;8239;48.594;8.598;2023-09-12T09:25:31;45.00;30.10
16263;DHT22;8239;48.594;8.598;2023-09-12T09:28:02;45.30;30.00
16263;DHT22;8239;48.594;8.598;2023-09-12T09:30:44;45.40;30.00
16263;DHT22;8239;48.594;8.598;2023-09-12T09:33:14;45.30;30.00
16263;DHT22;8239;48.594;8.598;2023-09-12T09:35:41;45.00;29.80
16263;DHT22;8239;48.594;8.598;2023-09-12T09:38:09;45.20;29.60
16263;DHT22;8239;48.594;8.598;2023-09-12T09:40:55;45.20;29.60
16263;DHT22;8239;48.594;8.598;2023-09-12T09:43:24;45.00;29.60
16263;DHT22;8239;48.594;8.598;2023-09-12T09:45:54;44.70;29.40
16263;DHT22;8239;48.594;8.598;2023-09-12T09:48:22;44.60;29.20
16263;DHT22;8239;48.594;8.598;2023-09-12T09:50:53;44.10;29.60
16263;DHT22;8239;48.594;8.598;2023-09-12T09:53:23;44.00;30.00
16263;DHT22;8239;48.594;8.598;2023-09-12T09:55:52;43.60;29.80
16263;DHT22;8239;48.594;8.598;2023-09-12T09:58:25;43.20;30.40
16263;DHT22;8239;48.594;8.598;2023-09-12T10:00:52;43.00;30.30
16263;DHT22;8239;48.594;8.598;2023-09-12T10:03:29;43.30;30.30
16263;DHT22;8239;48.594;8.598;2023-09-12T10:06:02;43.80;30.00
16263;DHT22;8239;48.594;8.598;2023-09-12T10:08:31;44.40;29.80
16263;DHT22;8239;48.594;8.598;2023-09-12T10:10:59;45.10;29.30
16263;DHT22;8239;48.594;8.598;2023-09-12T10:13:29;44.70;28.80
16263;DHT22;8239;48.594;8.598;2023-09-12T10:15:59;44.10;29.70
16263;DHT22;8239;48.594;8.598;2023-09-12T10:18:29;43.70;29.90
16263;DHT22;8239;48.594;8.598;2023-09-12T10:21:13;43.10;30.50
16263;DHT22;8239;48.594;8.598;2023-09-12T10:23:45;42.60;31.00
16263;DHT22;8239;48.594;8.598;2023-09-12T10:26:17;42.40;31.30
16263;DHT22;8239;48.594;8.598;2023-09-12T10:28:46;42.50;31.20
16263;DHT22;8239;48.594;8.598;2023-09-12T10:31:14;42.50;30.90
16263;DHT22;8239;48.594;8.598;2023-09-12T10:33:41;42.60;30.10
16263;DHT22;8239;48.594;8.598;2023-09-12T10:36:12;42.50;30.00
16263;DHT22;8239;48.594;8.598;2023-09-12T10:38:42;42.50;30.30
16263;DHT22;8239;48.594;8.598;2023-09-12T10:41:11;42.20;30.30
16263;DHT22;8239;48.594;8.598;2023-09-12T10:43:40;42.00;30.60
16263;DHT22;8239;48.594;8.598;2023-09-12T10:46:09;41.80;30.80
16263;DHT22;8239;48.594;8.598;2023-09-12T10:48:36;41.70;31.20
16263;DHT22;8239;48.594;8.598;2023-09-12T10:51:06;41.40;31.20
16263;DHT22;8239;48.594;8.598;2023-09-12T10:53:34;41.20;31.10
16263;DHT22;8239;48.594;8.598;2023-09-12T10:56:18;41.30;31.40
16263;DHT22;8239;48.594;8.598;2023-09-12T10:59:10;41.70;31.70
16263;DHT22;8239;48.594;8.598;2023-09-12T11:01:40;41.90;30.20
16263;DHT22;8239;48.594;8.598;2023-09-12T11:04:33;42.10;30.10
16263;DHT22;8239;48.594;8.598;2023-09-12T11:07:00;42.70;30.10
16263;DHT22;8239;48.594;8.598;2023-09-12T11:09:28;42.70;28.20
16263;DHT22;8239;48.594;8.598;2023-09-12T11:11:57;41.90;28.30
16263;DHT22;8239;48.594;8.598;2023-09-12T11:14:25;41.10;29.20
16263;DHT22;8239;48.594;8.598;2023-09-12T11:17:22;40.40;30.50
16263;DHT22;8239;48.594;8.598;2023-09-12T11:19:50;40.00;30.60
16263;DHT22;8239;48.594;8.598;2023-09-12T11:22:23;39.80;31.30
16263;DHT22;8239;48.594;8.598;2023-09-12T11:24:50;39.90;31.90
16263;DHT22;8239;48.594;8.598;2023-09-12T11:27:17;40.40;31.60
16263;DHT22;8239;48.594;8.598;2023-09-12T11:29:44;40.80;30.70
16263;DHT22;8239;48.594;8.598;2023-09-12T11:32:26;40.70;30.70
16263;DHT22;8239;48.594;8.598;2023-09-12T11:34:53;40.60;29.90
16263;DHT22;8239;48.594;8.598;2023-09-12T11:37:24;40.20;29.80
16263;DHT22;8239;48.594;8.598;2023-09-12T11:39:51;40.20;30.90
16263;DHT22;8239;48.594;8.598;2023-09-12T11:42:20;40.50;31.10
16263;DHT22;8239;48.594;8.598;2023-09-12T11:44:51;40.80;30.20
16263;DHT22;8239;48.594;8.598;2023-09-12T11:47:18;41.10;29.80
16263;DHT22;8239;48.594;8.598;2023-09-12T11:49:49;41.30;28.80
16263;DHT22;8239;48.594;8.598;2023-09-12T11:52:17;41.30;29.50
16263;DHT22;8239;48.594;8.598;2023-09-12T11:54:46;41.40;29.20
16263;DHT22;8239;48.594;8.598;2023-09-12T11:57:14;41.60;29.40
16263;DHT22;8239;48.594;8.598;2023-09-12T11:59:43;41.90;28.60
16263;DHT22;8239;48.594;8.598;2023-09-12T12:02:11;41.90;27.80
16263;DHT22;8239;48.594;8.598;2023-09-12T12:04:38;41.80;26.90
16263;DHT22;8239;48.594;8.598;2023-09-12T12:07:07;41.90;26.60
16263;DHT22;8239;48.594;8.598;2023-09-12T12:09:34;42.00;26.90
16263;DHT22;8239;48.594;8.598;2023-09-12T12:12:09;42.10;27.40
16263;DHT22;8239;48.594;8.598;2023-09-12T12:14:36;42.10;26.90
16263;DHT22;8239;48.594;8.598;2023-09-12T12:17:07;41.90;27.20
16263;DHT22;8239;48.594;8.598;2023-09-12T12:19:35;42.10;27.20
16263;DHT22;8239;48.594;8.598;2023-09-12T12:22:03;42.30;27.30
16263;DHT22;8239;48.594;8.598;2023-09-12T12:24:38;42.50;26.80
16263;DHT22;8239;48.594;8.598;2023-09-12T12:27:06;42.60;26.90
16263;DHT22;8239;48.594;8.598;2023-09-12T12:29:34;42.80;27.20
16263;DHT22;8239;48.594;8.598;2023-09-12T12:32:01;42.70;26.50
16263;DHT22;8239;48.594;8.598;2023-09-12T12:34:30;42.40;27.40
16263;DHT22;8239;48.594;8.598;2023-09-12T12:36:57;42.60;27.80
16263;DHT22;8239;48.594;8.598;2023-09-12T12:39:24;43.10;27.80
16263;DHT22;8239;48.594;8.598;2023-09-12T12:41:53;43.90;27.00
16263;DHT22;8239;48.594;8.598;2023-09-12T12:44:21;44.50;25.00
16263;DHT22;8239;48.594;8.598;2023-09-12T12:46:49;44.60;24.90
16263;DHT22;8239;48.594;8.598;2023-09-12T12:49:16;44.60;25.00
16263;DHT22;8239;48.594;8.598;2023-09-12T12:51:43;44.30;24.30
16263;DHT22;8239;48.594;8.598;2023-09-12T12:54:10;44.20;24.60
16263;DHT22;8239;48.594;8.598;2023-09-12T12:56:37;44.40;24.60
16263;DHT22;8239;48.594;8.598;2023-09-12T12:59:07;44.40;24.20
16263;DHT22;8239;48.594;8.598;2023-09-12T13:01:36;43.80;24.90
16263;DHT22;8239;48.594;8.598;2023-09-12T13:04:05;43.00;25.10
16263;DHT22;8239;48.594;8.598;2023-09-12T13:06:32;42.70;25.70
16263;DHT22;8239;48.594;8.598;2023-09-12T13:09:02;42.50;26.10
16263;DHT22;8239;48.594;8.598;2023-09-12T13:11:31;42.10;26.00
16263;DHT22;8239;48.594;8.598;2023-09-12T13:13:58;41.00;26.70
16263;DHT22;8239;48.594;8.598;2023-09-12T13:16:28;39.50;27.70
16263;DHT22;8239;48.594;8.598;2023-09-12T13:18:55;38.60;29.00
16263;DHT22;8239;48.594;8.598;2023-09-12T13:21:22;38.40;29.20
16263;DHT22;8239;48.594;8.598;2023-09-12T13:23:49;38.40;29.80
16263;DHT22;8239;48.594;8.598;2023-09-12T13:26:15;39.30;29.50
16263;DHT22;8239;48.594;8.598;2023-09-12T13:28:46;40.20;28.30
16263;DHT22;8239;48.594;8.598;2023-09-12T13:31:13;40.80;27.50
16263;DHT22;8239;48.594;8.598;2023-09-12T13:33:41;41.40;27.50
16263;DHT22;8239;48.594;8.598;2023-09-12T13:36:08;42.30;26.70
16263;DHT22;8239;48.594;8.598;2023-09-12T13:38:35;42.90;26.00
16263;DHT22;8239;48.594;8.598;2023-09-12T13:41:02;43.30;26.00
16263;DHT22;8239;48.594;8.598;2023-09-12T13:43:29;43.40;25.80
16263;DHT22;8239;48.594;8.598;2023-09-12T13:45:57;43.70;26.40
16263;DHT22;8239;48.594;8.598;2023-09-12T13:48:24;44.20;25.40
16263;DHT22;8239;48.594;8.598;2023-09-12T13:50:52;44.50;24.70
16263;DHT22;8239;48.594;8.598;2023-09-12T13:53:19;44.30;24.80
16263;DHT22;8239;48.594;8.598;2023-09-12T13:55:46;44.20;24.90
16263;DHT22;8239;48.594;8.598;2023-09-12T13:58:13;44.40;25.10
16263;DHT22;8239;48.594;8.598;2023-09-12T14:00:40;44.60;25.10
16263;DHT22;8239;48.594;8.598;2023-09-12T14:03:07;44.70;25.50
16263;DHT22;8239;48.594;8.598;2023-09-12T14:05:34;44.90;25.10
16263;DHT22;8239;48.594;8.598;2023-09-12T14:08:02;45.30;25.10
16263;DHT22;8239;48.594;8.598;2023-09-12T14:10:29;45.70;24.30
16263;DHT22;8239;48.594;8.598;2023-09-12T14:12:56;45.20;24.20
16263;DHT22;8239;48.594;8.598;2023-09-12T14:15:23;43.60;24.50
16263;DHT22;8239;48.594;8.598;2023-09-12T14:17:51;41.70;25.80
16263;DHT22;8239;48.594;8.598;2023-09-12T14:20:18;40.00;27.00
16263;DHT22;8239;48.594;8.598;2023-09-12T14:22:45;38.60;28.40
16263;DHT22;8239;48.594;8.598;2023-09-12T14:25:14;37.50;29.40
16263;DHT22;8239;48.594;8.598;2023-09-12T14:27:42;36.90;30.90
16263;DHT22;8239;48.594;8.598;2023-09-12T14:30:10;36.70;31.20
16263;DHT22;8239;48.594;8.598;2023-09-12T14:32:38;36.70;30.20
16263;DHT22;8239;48.594;8.598;2023-09-12T14:35:06;36.50;29.90
16263;DHT22;8239;48.594;8.598;2023-09-12T14:37:33;36.60;30.20
16263;DHT22;8239;48.594;8.598;2023-09-12T14:40:03;37.40;29.90
16263;DHT22;8239;48.594;8.598;2023-09-12T14:42:32;39.10;28.90
16263;DHT22;8239;48.594;8.598;2023-09-12T14:44:59;40.60;26.90
16263;DHT22;8239;48.594;8.598;2023-09-12T14:47:26;41.60;25.70
16263;DHT22;8239;48.594;8.598;2023-09-12T14:49:56;41.70;25.60
16263;DHT22;8239;48.594;8.598;2023-09-12T14:52:22;40.80;25.90
16263;DHT22;8239;48.594;8.598;2023-09-12T14:54:51;39.30;27.20
16263;DHT22;8239;48.594;8.598;2023-09-12T14:57:18;38.70;29.00
16263;DHT22;8239;48.594;8.598;2023-09-12T14:59:47;38.50;27.70
16263;DHT22;8239;48.594;8.598;2023-09-12T15:02:14;38.70;28.20
16263;DHT22;8239;48.594;8.598;2023-09-12T15:04:41;39.70;28.00
16263;DHT22;8239;48.594;8.598;2023-09-12T15:07:08;40.60;26.90
16263;DHT22;8239;48.594;8.598;2023-09-12T15:09:35;41.20;25.20
16263;DHT22;8239;48.594;8.598;2023-09-12T15:12:02;40.70;25.20
16263;DHT22;8239;48.594;8.598;2023-09-12T15:14:29;39.80;25.60
16263;DHT22;8239;48.594;8.598;2023-09-12T15:16:57;38.60;25.90
16263;DHT22;8239;48.594;8.598;2023-09-12T15:19:25;37.50;27.40
16263;DHT22;8239;48.594;8.598;2023-09-12T15:21:52;36.60;27.60
16263;DHT22;8239;48.594;8.598;2023-09-12T15:24:19;35.90;28.60
16263;DHT22;8239;48.594;8.598;2023-09-12T15:26:46;35.20;28.30
16263;DHT22;8239;48.594;8.598;2023-09-12T15:29:13;34.70;29.10
16263;DHT22;8239;48.594;8.598;2023-09-12T15:31:39;34.40;29.90
16263;DHT22;8239;48.594;8.598;2023-09-12T15:34:08;34.10;30.50
16263;DHT22;8239;48.594;8.598;2023-09-12T15:36:41;34.00;31.60
16263;DHT22;8239;48.594;8.598;2023-09-12T15:39:08;34.30;31.40
16263;DHT22;8239;48.594;8.598;2023-09-12T15:41:35;35.10;31.70
16263;DHT22;8239;48.594;8.598;2023-09-12T15:44:02;36.30;30.90
16263;DHT22;8239;48.594;8.598;2023-09-12T15:46:29;37.80;29.80
16263;DHT22;8239;48.594;8.598;2023-09-12T15:48:56;38.90;28.50
16263;DHT22;8239;48.594;8.598;2023-09-12T15:51:25;39.60;27.20